Home PIREPS Pireps

Flight BEL3633

  • Submitted By: Kristian Fodor
  • Departure Airport: Bruxelles National (EBBR)
  • Arrival Airport: Paris - Charles-de-Gaulle (LFPG)
  • Aircraft: A320-214 (OO-SNA)
  • Flight Time: 01.01
  • Date Submitted: 20/07/2015
  • Status: Accepted
Flight Details
Gross Revenue:
(143 load / € 34.00 per unit
€ 4,862.00
Fuel Cost:
(3333 fuel used @ 5.1 / unit)
€ 16,998.30

Additional Log Information:

View Log

Aircraft Used in flight is Airbus A320 NEO
23:58 Beacon Lights ON at 200 AGL
23:58 Brakes are On
23:58 Taxi Lights ON at 200 AGL
23:58 Brakes are Released
23:59 Engine 1 Started
00:00 Engine 2 Started
00:00 Brakes are On
00:00Flaps 1 Selected at 200ft and 2kts
00:00Flaps 2 Selected at 200ft and 2kts
00:00 Navigation Lights ON at 200 AGL
00:01 Brakes are Released
00:05 Spoilers Armed
00:08 Taxi Lights OFF at 200 AGL
00:08 Taxi Lights ON at 200 AGL
00:09 Strobe Lights ON at 200 AGL
00:09 You Took off @ 152 Knots and Flaps at Position 2
Departure Weather
EBBR 202050Z 19005KT 9999 FEW036 20/19 Q1013 NOSIGrn
00:09Flaps 1 Selected at 910ft and 129kts
00:09Flaps Retracted at 940ft and 128kts
00:09 Landing Gear Up @ 131 Knots and 970 Feet
00:09Flaps 1 Selected at 970ft and 134kts
00:09 Taxi Lights OFF at 970 AGL
00:09 You exceeded maximum bank angle
00:10Flaps Retracted at 1150ft and 192kts
00:14 Below 10000 feet you are not allowed to go over 250 knots
00:31 Spoilers Disarmed
00:40Flaps 1 Selected at 4160ft and 263kts
00:40Flaps 2 Selected at 4120ft and 262kts
00:40 Landing Gear Down @ 168 Knots and 5160 Feet
00:52Flaps 4 Selected at 970ft and 161kts
00:52 Spoilers Armed
00:54 Spoilers Disarmed
00:54 You Landed @ 147 Knots and with -250 Vertical Speed
Arrival Weather
LFPG 202130Z 22009G19KT 200V300 9999 BKN040 24/17 Q1015 NOSIGrn
00:54 Strobe Lights OFF at 410 AGL
00:55Flaps Retracted at 400ft and 23kts
00:58 Brakes are On
00:59 Engine 2 Stoped
00:59 Engine 1 Stoped
00:59 Beacon Lights OFF at 400 AGL
00:59 Navigation Lights OFF at 400 AGL
00:59 Brussels Bel-Track1.0.0.11

Route Map

Corporate About Us Our Team Vacancies Information Fleet Route Network Rules and Regulations Operations Flight Schedules Event Center Tours Partners IVAO Vatsim Acars dev FSCB

fb Users Online Belgium Michael Bitu,
2 Pilot(s) and 99 Guest(s) Online
CMS by phpVMS - Design by Crazycreatives.com - Copyright © 2018 - Brussels Airlines Virtual